Terminal Aerodrome Forecast
Issued by NWS

Home | Current Version | Previous Version | Text Only | Print | Product List | Glossary On
Versions: 1 2 3 4 5 6 7 8 9 10 11 12 13 14 15 16 17 18 19 20
000
FTUS45 KVEF 290236 AAA
TAFHND
TAF AMD
KHND 290236Z 2903/2924 27007KT P6SM VCSH SCT050 BKN080
      TEMPO 2903/2905 33012G20KT -RA SCT050 BKN060
     FM290500 29008KT P6SM FEW060 BKN100
     FM291500 VRB06KT P6SM FEW070 SCT110
     FM292100 24010KT P6SM FEW070 SCT110=

USA.gov is the U.S. government's official web portal to all federal, state and local government web resources and services.